createdAt,value
2022-07-29T00:02:48.717Z,4.25
2022-07-29T00:05:53.024Z,3.80
2022-07-29T00:09:00.868Z,4.22
2022-07-29T00:12:03.557Z,4.40
2022-07-29T00:15:06.425Z,3.90
2022-07-29T00:18:09.245Z,4.40
2022-07-29T00:21:11.639Z,4.20
2022-07-29T00:24:14.315Z,4.00
2022-07-29T00:27:18.106Z,3.92
2022-07-29T00:30:20.997Z,4.20
2022-07-29T00:33:24.452Z,3.90
2022-07-29T00:36:26.984Z,3.80
2022-07-29T00:39:30.119Z,4.00
2022-07-29T00:42:42.901Z,3.85
2022-07-29T00:45:45.732Z,4.30
2022-07-29T00:48:48.198Z,4.10
2022-07-29T00:51:51.000Z,4.47
2022-07-29T00:54:53.629Z,4.07
2022-07-29T00:57:56.190Z,4.05
2022-07-29T01:00:59.240Z,4.18
2022-07-29T01:04:01.991Z,3.83
2022-07-29T01:07:05.543Z,3.87
2022-07-29T01:10:10.832Z,4.15
2022-07-29T01:13:14.560Z,4.35
2022-07-29T01:16:28.243Z,4.22
2022-07-29T01:19:42.866Z,4.13
2022-07-29T01:23:06.537Z,4.30
2022-07-29T01:26:21.087Z,4.15
2022-07-29T01:29:36.027Z,4.18
2022-07-29T01:32:42.036Z,4.00
2022-07-29T01:35:46.029Z,4.00
2022-07-29T01:38:58.968Z,4.07
2022-07-29T01:42:24.463Z,3.75
2022-07-29T01:45:54.033Z,4.25
2022-07-29T01:49:09.696Z,4.18
2022-07-29T01:52:19.511Z,3.70
2022-07-29T01:55:26.097Z,3.93
2022-07-29T01:58:32.287Z,3.95
2022-07-29T02:01:37.080Z,4.05
2022-07-29T02:04:42.207Z,4.15
2022-07-29T02:07:47.351Z,4.40
2022-07-29T02:10:50.873Z,4.20
2022-07-29T02:13:58.555Z,4.45
2022-07-29T02:17:02.712Z,4.05
2022-07-29T02:20:06.236Z,4.28
2022-07-29T02:23:11.604Z,4.03
2022-07-29T02:26:14.044Z,4.43
2022-07-29T02:29:19.844Z,4.15
2022-07-29T02:32:25.461Z,4.68
2022-07-29T02:35:28.586Z,4.20
2022-07-29T02:38:54.471Z,4.00
2022-07-29T02:42:02.549Z,4.20
2022-07-29T02:45:06.417Z,4.60
2022-07-29T02:48:14.742Z,4.45
2022-07-29T02:51:44.085Z,4.32
2022-07-29T02:54:52.114Z,3.85
2022-07-29T02:58:02.301Z,4.53
2022-07-29T03:01:12.403Z,4.28
2022-07-29T03:04:16.736Z,4.63
2022-07-29T03:07:20.979Z,4.90
2022-07-29T03:10:26.077Z,4.70
2022-07-29T03:13:30.463Z,4.47
2022-07-29T03:16:36.886Z,5.15
2022-07-29T03:19:43.417Z,5.15
2022-07-29T03:22:49.000Z,5.30
2022-07-29T03:25:51.727Z,4.80
2022-07-29T03:28:54.071Z,5.13
2022-07-29T03:31:57.454Z,5.03
2022-07-29T03:35:00.802Z,4.80
2022-07-29T03:38:03.568Z,4.60
2022-07-29T03:41:11.528Z,4.57
2022-07-29T03:44:16.616Z,4.70
2022-07-29T03:47:23.404Z,4.80
2022-07-29T03:50:46.145Z,4.95
2022-07-29T03:53:48.531Z,4.85
2022-07-29T03:56:53.559Z,4.85
2022-07-29T03:59:56.569Z,4.60
2022-07-29T04:02:59.176Z,4.55
2022-07-29T04:06:09.509Z,4.75
2022-07-29T04:09:12.803Z,5.07
2022-07-29T04:12:15.225Z,4.85
2022-07-29T04:15:17.631Z,5.37
2022-07-29T04:18:20.077Z,5.20
2022-07-29T04:21:22.572Z,4.93
2022-07-29T04:24:25.077Z,5.20
2022-07-29T04:27:27.523Z,5.30
2022-07-29T04:30:31.587Z,5.10
2022-07-29T04:33:34.172Z,5.10
2022-07-29T04:36:37.001Z,5.15
2022-07-29T04:39:39.458Z,4.95
2022-07-29T04:42:46.796Z,4.95
2022-07-29T04:45:50.538Z,17.10
2022-07-29T04:48:53.037Z,6.00
2022-07-29T04:51:55.506Z,5.10
2022-07-29T04:54:57.864Z,5.13
2022-07-29T04:58:00.331Z,5.40
2022-07-29T05:01:04.747Z,5.33
2022-07-29T05:04:07.206Z,5.00
2022-07-29T05:07:09.617Z,6.00
2022-07-29T05:10:12.745Z,5.03
2022-07-29T05:13:15.161Z,5.38
2022-07-29T05:16:17.696Z,5.50
2022-07-29T05:19:20.190Z,5.47
2022-07-29T05:22:22.948Z,6.00
2022-07-29T05:25:44.340Z,5.50
2022-07-29T05:28:47.318Z,5.40
2022-07-29T05:31:49.686Z,6.07
2022-07-29T05:34:52.128Z,6.50
2022-07-29T05:37:54.457Z,6.65
2022-07-29T05:40:59.513Z,6.53
2022-07-29T05:44:01.959Z,6.43
2022-07-29T05:47:04.463Z,7.07
2022-07-29T05:50:07.661Z,8.02
2022-07-29T05:53:18.887Z,8.30
2022-07-29T05:56:21.723Z,8.48
2022-07-29T05:59:29.829Z,8.48
2022-07-29T06:02:32.861Z,8.17
2022-07-29T06:05:35.266Z,8.52
2022-07-29T06:08:38.000Z,7.68
2022-07-29T06:11:41.422Z,8.00
2022-07-29T06:14:43.797Z,7.88
2022-07-29T06:18:00.095Z,7.60
2022-07-29T06:21:09.740Z,8.13
2022-07-29T06:24:14.017Z,8.20
2022-07-29T06:27:17.281Z,8.13
2022-07-29T06:30:19.640Z,8.45
2022-07-29T06:33:22.187Z,7.87
2022-07-29T06:36:24.572Z,8.30
2022-07-29T06:39:28.937Z,8.10
2022-07-29T06:42:31.325Z,8.27
2022-07-29T06:45:37.322Z,8.45
2022-07-29T06:48:41.651Z,8.30
2022-07-29T06:51:44.255Z,8.27
2022-07-29T06:54:49.059Z,8.10
2022-07-29T06:57:51.589Z,7.93
2022-07-29T07:00:54.131Z,8.60
2022-07-29T07:03:57.135Z,8.67
2022-07-29T07:07:00.533Z,8.43
2022-07-29T07:10:03.531Z,8.38
2022-07-29T07:13:06.718Z,8.35
2022-07-29T07:16:09.892Z,8.73
2022-07-29T07:19:12.448Z,8.23
2022-07-29T07:22:16.637Z,8.07
2022-07-29T07:25:19.498Z,7.88
2022-07-29T07:28:24.701Z,7.68
2022-07-29T07:31:27.607Z,7.65
2022-07-29T07:34:31.096Z,7.27
2022-07-29T07:37:33.880Z,7.43
2022-07-29T07:40:36.585Z,7.10
2022-07-29T07:43:38.995Z,6.80
2022-07-29T07:46:41.435Z,6.60
2022-07-29T07:49:44.670Z,6.57
2022-07-29T07:52:53.240Z,7.18
2022-07-29T07:56:12.407Z,6.97
2022-07-29T07:59:15.307Z,6.93
2022-07-29T08:02:17.788Z,7.10
2022-07-29T08:05:20.878Z,6.60
2022-07-29T08:08:23.473Z,6.15
2022-07-29T08:11:26.043Z,6.22
2022-07-29T08:14:28.407Z,6.20
2022-07-29T08:17:30.838Z,6.43
2022-07-29T08:20:39.308Z,7.10
2022-07-29T08:23:51.435Z,6.32
2022-07-29T08:26:55.414Z,6.55
2022-07-29T08:29:58.421Z,6.30
2022-07-29T08:33:01.084Z,6.60
2022-07-29T08:36:04.309Z,6.60
2022-07-29T08:39:06.781Z,7.07
2022-07-29T08:42:11.131Z,6.65
2022-07-29T08:45:13.768Z,7.13
2022-07-29T08:48:18.548Z,6.70
2022-07-29T08:51:22.724Z,6.57
2022-07-29T08:54:25.872Z,7.28
2022-07-29T08:57:29.125Z,7.28
2022-07-29T09:00:34.059Z,7.63
2022-07-29T09:03:38.795Z,7.05
2022-07-29T09:06:44.954Z,7.27
2022-07-29T09:09:47.606Z,6.57
2022-07-29T09:12:50.211Z,7.10
2022-07-29T09:15:53.197Z,6.57
2022-07-29T09:18:55.595Z,6.60
2022-07-29T09:22:00.269Z,7.23
2022-07-29T09:25:02.939Z,6.60
2022-07-29T09:28:12.709Z,6.93
2022-07-29T09:31:15.119Z,6.63
2022-07-29T09:34:23.572Z,6.03
2022-07-29T09:37:31.962Z,6.07
2022-07-29T09:40:36.132Z,6.40
2022-07-29T09:43:38.711Z,6.72
2022-07-29T09:46:43.024Z,6.30
2022-07-29T09:49:59.239Z,6.28
2022-07-29T09:53:01.871Z,6.20
2022-07-29T09:56:07.486Z,6.88
2022-07-29T09:59:10.838Z,6.68
2022-07-29T10:02:18.911Z,6.32
2022-07-29T10:05:36.485Z,6.22
2022-07-29T10:08:39.668Z,6.90
2022-07-29T10:11:49.030Z,7.10
2022-07-29T10:14:52.418Z,6.97
2022-07-29T10:17:56.690Z,7.28
2022-07-29T10:21:02.073Z,6.80
2022-07-29T10:24:05.877Z,6.70
2022-07-29T10:27:10.054Z,6.75
2022-07-29T10:30:14.372Z,6.20
2022-07-29T10:33:53.851Z,5.90
2022-07-29T10:37:08.162Z,5.75
2022-07-29T10:40:41.917Z,5.73
2022-07-29T10:43:48.156Z,6.00
2022-07-29T10:46:54.601Z,6.38
2022-07-29T10:49:58.344Z,5.82
2022-07-29T10:53:04.911Z,5.70
2022-07-29T10:56:34.301Z,6.43
2022-07-29T10:59:37.975Z,6.20
2022-07-29T11:02:41.463Z,6.13
2022-07-29T11:05:54.255Z,6.25
2022-07-29T11:09:16.678Z,5.68
2022-07-29T11:12:45.205Z,6.03
2022-07-29T11:15:58.353Z,5.30
2022-07-29T11:19:13.147Z,5.70
2022-07-29T11:22:35.484Z,5.32
2022-07-29T11:25:50.866Z,5.35
2022-07-29T11:29:03.519Z,5.20
2022-07-29T11:32:18.345Z,5.50
2022-07-29T11:35:38.249Z,5.68
2022-07-29T11:38:42.502Z,5.45
2022-07-29T11:41:45.383Z,5.60
2022-07-29T11:45:08.445Z,6.10
2022-07-29T11:48:29.222Z,5.60
2022-07-29T11:51:33.672Z,5.78
2022-07-29T11:54:52.356Z,5.53
2022-07-29T11:58:04.033Z,6.18
2022-07-29T12:01:07.326Z,5.40
2022-07-29T12:04:10.153Z,5.78
2022-07-29T12:07:15.667Z,5.70
2022-07-29T12:10:20.168Z,5.65
2022-07-29T12:13:40.561Z,5.82
2022-07-29T12:16:42.997Z,5.37
2022-07-29T12:19:46.937Z,5.93
2022-07-29T12:22:50.298Z,5.80
2022-07-29T12:25:53.120Z,5.65
2022-07-29T12:28:56.717Z,5.63
2022-07-29T12:32:00.601Z,6.07
2022-07-29T12:35:10.275Z,6.00
2022-07-29T12:38:13.937Z,5.80
2022-07-29T12:41:16.504Z,5.55
2022-07-29T12:44:18.938Z,6.10
2022-07-29T12:47:21.928Z,6.00
2022-07-29T12:50:26.533Z,5.90
2022-07-29T12:53:29.864Z,5.50
2022-07-29T12:56:42.704Z,6.45
2022-07-29T12:59:45.960Z,6.43
2022-07-29T13:02:59.547Z,6.20
2022-07-29T13:06:02.019Z,6.60
2022-07-29T13:09:15.518Z,7.05
2022-07-29T13:12:17.949Z,6.93
2022-07-29T13:15:20.387Z,7.10
2022-07-29T13:18:34.693Z,6.80
2022-07-29T13:21:38.559Z,6.40
2022-07-29T13:24:50.427Z,7.43
2022-07-29T13:27:52.823Z,6.90
2022-07-29T13:30:55.896Z,7.43
2022-07-29T13:33:58.436Z,7.10
2022-07-29T13:37:00.948Z,7.28
2022-07-29T13:40:05.123Z,7.30
2022-07-29T13:43:10.509Z,7.00
2022-07-29T13:46:13.034Z,6.68
2022-07-29T13:49:15.640Z,7.20
2022-07-29T13:52:18.353Z,7.32
2022-07-29T13:55:21.177Z,7.50
2022-07-29T13:58:24.018Z,7.13
2022-07-29T14:01:27.251Z,7.60
2022-07-29T14:04:29.860Z,7.80
2022-07-29T14:07:32.423Z,6.82
2022-07-29T14:10:34.843Z,7.50
2022-07-29T14:13:37.302Z,7.88
2022-07-29T14:16:43.735Z,7.35
2022-07-29T14:19:51.693Z,7.83
2022-07-29T14:22:54.088Z,7.25
2022-07-29T14:25:57.112Z,6.80
2022-07-29T14:28:59.797Z,6.75
2022-07-29T14:32:02.522Z,5.97
2022-07-29T14:35:06.647Z,4.90
2022-07-29T14:38:09.351Z,6.38
2022-07-29T14:41:11.768Z,5.63
2022-07-29T14:44:14.113Z,5.60
2022-07-29T14:47:17.484Z,7.60
2022-07-29T14:50:23.316Z,6.90
2022-07-29T14:53:34.092Z,7.57
2022-07-29T14:56:37.689Z,6.03
2022-07-29T14:59:48.947Z,6.03
2022-07-29T15:03:06.532Z,5.72
2022-07-29T15:06:13.943Z,6.17
2022-07-29T15:09:16.508Z,6.35
2022-07-29T15:12:19.175Z,7.43
2022-07-29T15:15:21.787Z,5.90
2022-07-29T15:18:25.342Z,5.63
2022-07-29T15:21:28.560Z,6.50
2022-07-29T15:24:31.061Z,6.15
2022-07-29T15:27:33.754Z,6.50
2022-07-29T15:30:41.534Z,7.20
2022-07-29T15:33:43.879Z,5.80
2022-07-29T15:36:54.002Z,6.43
2022-07-29T15:39:59.981Z,5.82
2022-07-29T15:43:06.623Z,5.75
2022-07-29T15:46:27.966Z,6.15
2022-07-29T15:49:48.091Z,5.68
2022-07-29T15:52:51.913Z,5.90
2022-07-29T15:55:54.417Z,6.30
2022-07-29T15:58:56.978Z,6.10
2022-07-29T16:01:59.927Z,6.00
2022-07-29T16:05:02.394Z,5.90
2022-07-29T16:08:05.180Z,5.90
2022-07-29T16:11:07.616Z,6.03
2022-07-29T16:14:11.711Z,6.00
2022-07-29T16:17:14.334Z,6.07
2022-07-29T16:20:17.599Z,6.00
2022-07-29T16:23:20.275Z,6.43
2022-07-29T16:26:22.727Z,7.10
2022-07-29T16:29:25.792Z,7.05
2022-07-29T16:32:28.187Z,7.53
2022-07-29T16:35:39.218Z,7.30
2022-07-29T16:38:47.012Z,7.00
2022-07-29T16:41:49.884Z,7.20
2022-07-29T16:44:52.315Z,7.68
2022-07-29T16:48:00.006Z,7.90
2022-07-29T16:51:02.854Z,7.47
2022-07-29T16:54:05.411Z,7.57
2022-07-29T16:57:07.863Z,7.80
2022-07-29T17:00:11.129Z,7.78
2022-07-29T17:03:13.999Z,7.95
2022-07-29T17:06:16.640Z,8.13
2022-07-29T17:09:19.095Z,7.70
2022-07-29T17:12:21.447Z,8.45
2022-07-29T17:15:23.995Z,8.32
2022-07-29T17:18:26.729Z,8.43
2022-07-29T17:21:29.191Z,8.18
2022-07-29T17:24:31.584Z,7.27
2022-07-29T17:27:35.020Z,7.97
2022-07-29T17:30:37.438Z,8.30
2022-07-29T17:33:43.624Z,7.90
2022-07-29T17:36:46.272Z,7.60
2022-07-29T17:39:48.941Z,7.13
2022-07-29T17:42:51.374Z,7.28
2022-07-29T17:45:59.281Z,6.88
2022-07-29T17:49:02.378Z,6.75
2022-07-29T17:52:05.447Z,6.65
2022-07-29T17:55:10.233Z,6.70
2022-07-29T17:58:12.886Z,6.40
2022-07-29T18:01:16.195Z,6.90
2022-07-29T18:04:21.036Z,6.28
2022-07-29T18:07:24.250Z,6.15
2022-07-29T18:10:26.851Z,6.53
2022-07-29T18:13:29.236Z,6.78
2022-07-29T18:16:31.672Z,6.18
2022-07-29T18:19:34.127Z,6.55
2022-07-29T18:22:36.596Z,6.43
2022-07-29T18:25:40.077Z,6.60
2022-07-29T18:28:42.534Z,6.95
2022-07-29T18:31:45.059Z,8.07
2022-07-29T18:34:47.807Z,7.50
2022-07-29T18:38:01.948Z,7.05
2022-07-29T18:41:05.299Z,6.97
2022-07-29T18:44:09.598Z,6.85
2022-07-29T18:47:12.503Z,6.35
2022-07-29T18:50:16.594Z,6.57
2022-07-29T18:53:19.063Z,7.03
2022-07-29T18:56:21.466Z,6.60
2022-07-29T18:59:24.096Z,7.30
2022-07-29T19:02:27.847Z,6.63
2022-07-29T19:05:30.383Z,6.43
2022-07-29T19:08:32.781Z,6.70
2022-07-29T19:11:39.131Z,6.40
2022-07-29T19:14:41.482Z,6.20
2022-07-29T19:17:43.906Z,6.07
2022-07-29T19:20:46.236Z,6.10
2022-07-29T19:24:02.439Z,5.90
2022-07-29T19:27:09.997Z,5.97
2022-07-29T19:30:12.789Z,5.97
2022-07-29T19:33:17.567Z,6.07
2022-07-29T19:36:20.608Z,6.00
2022-07-29T19:39:34.753Z,5.82
2022-07-29T19:42:37.971Z,5.83
2022-07-29T19:45:40.510Z,5.78
2022-07-29T19:48:43.157Z,5.72
2022-07-29T19:51:45.633Z,6.32
2022-07-29T19:54:48.173Z,6.25
2022-07-29T19:57:51.034Z,5.50
2022-07-29T20:00:53.834Z,5.72
2022-07-29T20:03:56.200Z,6.25
2022-07-29T20:07:01.528Z,6.07
2022-07-29T20:10:06.179Z,5.63
2022-07-29T20:13:09.002Z,6.80
2022-07-29T20:16:11.588Z,6.05
2022-07-29T20:19:14.516Z,6.70
2022-07-29T20:22:21.095Z,6.43
2022-07-29T20:25:24.052Z,6.68
2022-07-29T20:28:26.460Z,7.23
2022-07-29T20:31:30.562Z,6.88
2022-07-29T20:34:33.234Z,6.63
2022-07-29T20:37:52.240Z,7.05
2022-07-29T20:40:58.878Z,7.25
2022-07-29T20:44:04.846Z,6.77
2022-07-29T20:47:07.278Z,7.72
2022-07-29T20:50:10.152Z,7.43
2022-07-29T20:53:12.729Z,6.95
2022-07-29T20:56:15.467Z,7.28
2022-07-29T20:59:17.864Z,7.23
2022-07-29T21:02:20.325Z,7.57
2022-07-29T21:05:23.251Z,7.38
2022-07-29T21:08:26.729Z,7.85
2022-07-29T21:11:43.337Z,7.60
2022-07-29T21:14:48.061Z,8.50
2022-07-29T21:17:52.538Z,7.75
2022-07-29T21:20:55.183Z,7.80
2022-07-29T21:23:57.616Z,8.00
2022-07-29T21:27:21.045Z,7.88
2022-07-29T21:30:24.328Z,8.27
2022-07-29T21:33:28.503Z,7.80
2022-07-29T21:39:53.436Z,8.20
2022-07-29T21:42:55.930Z,7.97
2022-07-29T21:45:59.552Z,7.60
2022-07-29T21:49:02.716Z,7.78
2022-07-29T21:52:06.300Z,8.18
2022-07-29T21:55:11.771Z,7.70
2022-07-29T21:58:17.522Z,8.02
2022-07-29T22:01:20.024Z,7.57
2022-07-29T22:04:22.530Z,8.63
2022-07-29T22:07:24.977Z,7.97
2022-07-29T22:10:47.336Z,8.45
2022-07-29T22:13:49.823Z,8.23
2022-07-29T22:16:52.689Z,8.27
2022-07-29T22:20:00.818Z,8.23
2022-07-29T22:23:03.354Z,7.72
2022-07-29T22:26:05.984Z,8.07
2022-07-29T22:29:17.638Z,7.88
2022-07-29T22:32:20.135Z,8.20
2022-07-29T22:35:22.753Z,7.57
2022-07-29T22:38:25.218Z,7.72
2022-07-29T22:41:27.640Z,7.63
2022-07-29T22:44:30.246Z,7.65
2022-07-29T22:47:45.855Z,6.93
2022-07-29T22:50:50.444Z,7.55
2022-07-29T22:53:52.938Z,7.65
2022-07-29T22:56:55.489Z,7.68
2022-07-29T22:59:58.003Z,8.57
2022-07-29T23:03:00.674Z,7.27
2022-07-29T23:06:03.252Z,8.32
2022-07-29T23:09:05.642Z,7.97
2022-07-29T23:12:08.565Z,8.30
2022-07-29T23:15:11.006Z,8.75
2022-07-29T23:18:13.876Z,7.87
2022-07-29T23:21:16.362Z,8.32
2022-07-29T23:24:18.887Z,8.38
2022-07-29T23:27:21.281Z,8.60
2022-07-29T23:30:23.817Z,8.32
2022-07-29T23:33:26.290Z,8.03
2022-07-29T23:36:29.343Z,9.00
2022-07-29T23:39:31.723Z,9.18
2022-07-29T23:42:34.115Z,8.73
2022-07-29T23:45:42.540Z,9.07
2022-07-29T23:48:47.535Z,8.70
2022-07-29T23:51:49.995Z,9.40
2022-07-29T23:54:53.194Z,8.88
2022-07-29T23:57:55.596Z,9.30
